sensor_id;sensor_type;location;lat;lon;timestamp;P1;durP1;ratioP1;P2;durP2;ratioP2
76290;SDS011;65100;46.884;17.410;2024-03-02T00:02:05;53.10;;;24.58;;
76290;SDS011;65100;46.884;17.410;2024-03-02T00:04:31;54.67;;;23.95;;
76290;SDS011;65100;46.884;17.410;2024-03-02T00:06:57;53.63;;;23.73;;
76290;SDS011;65100;46.884;17.410;2024-03-02T00:09:22;57.00;;;25.53;;
76290;SDS011;65100;46.884;17.410;2024-03-02T00:11:48;58.15;;;24.88;;
76290;SDS011;65100;46.884;17.410;2024-03-02T00:14:13;56.10;;;24.37;;
76290;SDS011;65100;46.884;17.410;2024-03-02T00:16:40;56.40;;;24.48;;
76290;SDS011;65100;46.884;17.410;2024-03-02T00:19:06;52.97;;;23.57;;
76290;SDS011;65100;46.884;17.410;2024-03-02T00:21:33;59.85;;;24.67;;
76290;SDS011;65100;46.884;17.410;2024-03-02T00:23:59;60.22;;;25.92;;
76290;SDS011;65100;46.884;17.410;2024-03-02T00:26:25;63.23;;;26.17;;
76290;SDS011;65100;46.884;17.410;2024-03-02T00:28:51;60.88;;;26.17;;
76290;SDS011;65100;46.884;17.410;2024-03-02T00:31:22;60.70;;;25.77;;
76290;SDS011;65100;46.884;17.410;2024-03-02T00:34:08;60.15;;;25.65;;
76290;SDS011;65100;46.884;17.410;2024-03-02T00:36:36;60.45;;;26.55;;
76290;SDS011;65100;46.884;17.410;2024-03-02T00:39:01;60.10;;;26.10;;
76290;SDS011;65100;46.884;17.410;2024-03-02T00:41:29;67.25;;;27.50;;
76290;SDS011;65100;46.884;17.410;2024-03-02T00:46:37;64.47;;;27.00;;
76290;SDS011;65100;46.884;17.410;2024-03-02T00:49:04;67.85;;;29.25;;
76290;SDS011;65100;46.884;17.410;2024-03-02T00:51:51;69.38;;;29.20;;
76290;SDS011;65100;46.884;17.410;2024-03-02T00:54:21;69.50;;;28.58;;
76290;SDS011;65100;46.884;17.410;2024-03-02T00:56:49;69.50;;;28.85;;
76290;SDS011;65100;46.884;17.410;2024-03-02T00:59:16;71.60;;;29.73;;
76290;SDS011;65100;46.884;17.410;2024-03-02T01:01:41;73.82;;;30.35;;
76290;SDS011;65100;46.884;17.410;2024-03-02T01:04:08;63.45;;;28.50;;
76290;SDS011;65100;46.884;17.410;2024-03-02T01:06:34;64.50;;;27.42;;
76290;SDS011;65100;46.884;17.410;2024-03-02T01:09:00;62.80;;;27.50;;
76290;SDS011;65100;46.884;17.410;2024-03-02T01:11:25;65.60;;;27.13;;
76290;SDS011;65100;46.884;17.410;2024-03-02T01:13:51;63.13;;;26.67;;
76290;SDS011;65100;46.884;17.410;2024-03-02T01:16:19;62.47;;;26.52;;
76290;SDS011;65100;46.884;17.410;2024-03-02T01:18:45;69.87;;;29.77;;
76290;SDS011;65100;46.884;17.410;2024-03-02T01:21:10;64.45;;;27.45;;
76290;SDS011;65100;46.884;17.410;2024-03-02T01:23:36;68.72;;;28.27;;
76290;SDS011;65100;46.884;17.410;2024-03-02T01:26:02;66.23;;;27.80;;
76290;SDS011;65100;46.884;17.410;2024-03-02T01:28:27;63.90;;;27.80;;
76290;SDS011;65100;46.884;17.410;2024-03-02T01:30:53;64.78;;;27.20;;
76290;SDS011;65100;46.884;17.410;2024-03-02T01:33:19;64.33;;;27.90;;
76290;SDS011;65100;46.884;17.410;2024-03-02T01:35:45;64.93;;;28.63;;
76290;SDS011;65100;46.884;17.410;2024-03-02T01:38:10;69.40;;;28.60;;
76290;SDS011;65100;46.884;17.410;2024-03-02T01:40:36;65.15;;;27.27;;
76290;SDS011;65100;46.884;17.410;2024-03-02T01:43:06;62.47;;;26.65;;
76290;SDS011;65100;46.884;17.410;2024-03-02T01:45:32;61.97;;;25.67;;
76290;SDS011;65100;46.884;17.410;2024-03-02T01:47:58;66.47;;;26.10;;
76290;SDS011;65100;46.884;17.410;2024-03-02T01:50:31;71.70;;;28.53;;
76290;SDS011;65100;46.884;17.410;2024-03-02T01:52:57;71.55;;;27.63;;
76290;SDS011;65100;46.884;17.410;2024-03-02T01:55:24;73.38;;;28.70;;
76290;SDS011;65100;46.884;17.410;2024-03-02T01:57:50;77.18;;;29.75;;
76290;SDS011;65100;46.884;17.410;2024-03-02T02:00:17;72.30;;;27.93;;
76290;SDS011;65100;46.884;17.410;2024-03-02T02:02:44;73.78;;;29.50;;
76290;SDS011;65100;46.884;17.410;2024-03-02T02:05:09;73.60;;;29.92;;
76290;SDS011;65100;46.884;17.410;2024-03-02T02:07:35;67.40;;;28.03;;
76290;SDS011;65100;46.884;17.410;2024-03-02T02:10:01;69.75;;;26.52;;
76290;SDS011;65100;46.884;17.410;2024-03-02T02:12:27;75.85;;;29.20;;
76290;SDS011;65100;46.884;17.410;2024-03-02T02:14:53;71.60;;;27.93;;
76290;SDS011;65100;46.884;17.410;2024-03-02T02:17:18;70.72;;;28.63;;
76290;SDS011;65100;46.884;17.410;2024-03-02T02:19:44;62.67;;;26.43;;
76290;SDS011;65100;46.884;17.410;2024-03-02T02:22:09;64.37;;;26.13;;
76290;SDS011;65100;46.884;17.410;2024-03-02T02:24:35;67.28;;;26.77;;
76290;SDS011;65100;46.884;17.410;2024-03-02T02:27:01;64.13;;;26.43;;
76290;SDS011;65100;46.884;17.410;2024-03-02T02:29:26;68.47;;;27.63;;
76290;SDS011;65100;46.884;17.410;2024-03-02T02:31:52;64.40;;;27.03;;
76290;SDS011;65100;46.884;17.410;2024-03-02T02:34:17;68.83;;;27.73;;
76290;SDS011;65100;46.884;17.410;2024-03-02T02:36:43;68.25;;;27.60;;
76290;SDS011;65100;46.884;17.410;2024-03-02T02:39:10;66.37;;;27.80;;
76290;SDS011;65100;46.884;17.410;2024-03-02T02:41:38;65.13;;;26.45;;
76290;SDS011;65100;46.884;17.410;2024-03-02T02:44:04;60.17;;;26.08;;
76290;SDS011;65100;46.884;17.410;2024-03-02T02:46:30;63.22;;;27.20;;
76290;SDS011;65100;46.884;17.410;2024-03-02T02:48:55;63.10;;;27.73;;
76290;SDS011;65100;46.884;17.410;2024-03-02T02:51:21;59.20;;;25.93;;
76290;SDS011;65100;46.884;17.410;2024-03-02T02:53:46;64.70;;;26.60;;
76290;SDS011;65100;46.884;17.410;2024-03-02T02:56:12;60.45;;;26.27;;
76290;SDS011;65100;46.884;17.410;2024-03-02T02:58:39;67.10;;;27.60;;
76290;SDS011;65100;46.884;17.410;2024-03-02T03:01:06;62.15;;;27.38;;
76290;SDS011;65100;46.884;17.410;2024-03-02T03:03:32;64.85;;;27.95;;
76290;SDS011;65100;46.884;17.410;2024-03-02T03:05:58;66.07;;;28.03;;
76290;SDS011;65100;46.884;17.410;2024-03-02T03:08:23;68.22;;;29.00;;
76290;SDS011;65100;46.884;17.410;2024-03-02T03:10:49;66.90;;;28.80;;
76290;SDS011;65100;46.884;17.410;2024-03-02T03:13:14;70.63;;;30.00;;
76290;SDS011;65100;46.884;17.410;2024-03-02T03:15:40;68.45;;;28.63;;
76290;SDS011;65100;46.884;17.410;2024-03-02T03:18:05;68.00;;;28.17;;
76290;SDS011;65100;46.884;17.410;2024-03-02T03:20:32;67.18;;;29.17;;
76290;SDS011;65100;46.884;17.410;2024-03-02T03:22:59;65.60;;;27.90;;
76290;SDS011;65100;46.884;17.410;2024-03-02T03:25:24;66.83;;;28.57;;
76290;SDS011;65100;46.884;17.410;2024-03-02T03:27:50;65.90;;;27.07;;
76290;SDS011;65100;46.884;17.410;2024-03-02T03:30:17;67.68;;;28.67;;
76290;SDS011;65100;46.884;17.410;2024-03-02T03:32:43;69.93;;;26.83;;
76290;SDS011;65100;46.884;17.410;2024-03-02T03:35:09;68.13;;;27.67;;
76290;SDS011;65100;46.884;17.410;2024-03-02T03:37:34;72.53;;;30.17;;
76290;SDS011;65100;46.884;17.410;2024-03-02T03:40:00;69.07;;;28.75;;
76290;SDS011;65100;46.884;17.410;2024-03-02T03:42:26;74.27;;;30.50;;
76290;SDS011;65100;46.884;17.410;2024-03-02T03:44:52;73.53;;;29.95;;
76290;SDS011;65100;46.884;17.410;2024-03-02T03:47:17;71.85;;;29.58;;
76290;SDS011;65100;46.884;17.410;2024-03-02T03:49:43;73.93;;;30.57;;
76290;SDS011;65100;46.884;17.410;2024-03-02T03:52:08;73.60;;;30.30;;
76290;SDS011;65100;46.884;17.410;2024-03-02T03:54:33;72.90;;;30.03;;
76290;SDS011;65100;46.884;17.410;2024-03-02T03:56:59;71.30;;;30.67;;
76290;SDS011;65100;46.884;17.410;2024-03-02T03:59:24;78.07;;;31.03;;
76290;SDS011;65100;46.884;17.410;2024-03-02T04:01:50;72.43;;;30.07;;
76290;SDS011;65100;46.884;17.410;2024-03-02T04:04:15;72.13;;;30.03;;
76290;SDS011;65100;46.884;17.410;2024-03-02T04:06:41;75.68;;;29.95;;
76290;SDS011;65100;46.884;17.410;2024-03-02T04:09:06;73.07;;;30.47;;
76290;SDS011;65100;46.884;17.410;2024-03-02T04:11:32;65.20;;;28.50;;
76290;SDS011;65100;46.884;17.410;2024-03-02T04:13:58;68.80;;;29.60;;
76290;SDS011;65100;46.884;17.410;2024-03-02T04:16:23;69.60;;;29.83;;
76290;SDS011;65100;46.884;17.410;2024-03-02T04:18:49;68.15;;;27.83;;
76290;SDS011;65100;46.884;17.410;2024-03-02T04:21:14;69.27;;;29.23;;
76290;SDS011;65100;46.884;17.410;2024-03-02T04:23:39;72.80;;;30.10;;
76290;SDS011;65100;46.884;17.410;2024-03-02T04:26:05;70.45;;;28.90;;
76290;SDS011;65100;46.884;17.410;2024-03-02T04:28:30;80.17;;;30.10;;
76290;SDS011;65100;46.884;17.410;2024-03-02T04:30:56;70.97;;;28.37;;
76290;SDS011;65100;46.884;17.410;2024-03-02T04:33:21;66.87;;;28.40;;
76290;SDS011;65100;46.884;17.410;2024-03-02T04:35:46;73.93;;;30.38;;
76290;SDS011;65100;46.884;17.410;2024-03-02T04:38:12;71.47;;;30.17;;
76290;SDS011;65100;46.884;17.410;2024-03-02T04:40:37;71.27;;;29.70;;
76290;SDS011;65100;46.884;17.410;2024-03-02T04:43:03;69.33;;;27.23;;
76290;SDS011;65100;46.884;17.410;2024-03-02T04:45:29;73.05;;;30.88;;
76290;SDS011;65100;46.884;17.410;2024-03-02T04:47:54;70.13;;;30.13;;
76290;SDS011;65100;46.884;17.410;2024-03-02T04:50:19;75.90;;;30.80;;
76290;SDS011;65100;46.884;17.410;2024-03-02T04:52:45;72.80;;;29.23;;
76290;SDS011;65100;46.884;17.410;2024-03-02T04:55:10;69.90;;;29.03;;
76290;SDS011;65100;46.884;17.410;2024-03-02T04:57:42;72.22;;;28.95;;
76290;SDS011;65100;46.884;17.410;2024-03-02T05:00:08;72.28;;;30.40;;
76290;SDS011;65100;46.884;17.410;2024-03-02T05:02:34;69.57;;;30.33;;
76290;SDS011;65100;46.884;17.410;2024-03-02T05:05:00;71.88;;;29.42;;
76290;SDS011;65100;46.884;17.410;2024-03-02T05:07:26;69.43;;;28.93;;
76290;SDS011;65100;46.884;17.410;2024-03-02T05:09:51;70.63;;;29.10;;
76290;SDS011;65100;46.884;17.410;2024-03-02T05:12:16;69.47;;;28.43;;
76290;SDS011;65100;46.884;17.410;2024-03-02T05:15:01;78.72;;;30.45;;
76290;SDS011;65100;46.884;17.410;2024-03-02T05:17:27;75.50;;;29.73;;
76290;SDS011;65100;46.884;17.410;2024-03-02T05:19:52;76.35;;;29.50;;
76290;SDS011;65100;46.884;17.410;2024-03-02T05:22:17;73.97;;;30.57;;
76290;SDS011;65100;46.884;17.410;2024-03-02T05:24:43;74.27;;;29.10;;
76290;SDS011;65100;46.884;17.410;2024-03-02T05:27:08;76.20;;;30.47;;
76290;SDS011;65100;46.884;17.410;2024-03-02T05:29:34;70.72;;;28.73;;
76290;SDS011;65100;46.884;17.410;2024-03-02T05:31:59;72.10;;;29.70;;
76290;SDS011;65100;46.884;17.410;2024-03-02T05:34:25;77.27;;;31.10;;
76290;SDS011;65100;46.884;17.410;2024-03-02T05:36:50;68.97;;;29.10;;
76290;SDS011;65100;46.884;17.410;2024-03-02T05:39:16;75.32;;;28.83;;
76290;SDS011;65100;46.884;17.410;2024-03-02T05:41:41;71.70;;;29.23;;
76290;SDS011;65100;46.884;17.410;2024-03-02T05:44:06;67.70;;;27.50;;
76290;SDS011;65100;46.884;17.410;2024-03-02T05:46:32;62.43;;;27.47;;
76290;SDS011;65100;46.884;17.410;2024-03-02T05:48:58;62.45;;;25.92;;
76290;SDS011;65100;46.884;17.410;2024-03-02T05:51:24;60.77;;;24.67;;
76290;SDS011;65100;46.884;17.410;2024-03-02T05:53:50;65.18;;;27.08;;
76290;SDS011;65100;46.884;17.410;2024-03-02T05:56:15;66.00;;;27.17;;
76290;SDS011;65100;46.884;17.410;2024-03-02T05:58:41;71.13;;;28.15;;
76290;SDS011;65100;46.884;17.410;2024-03-02T06:01:26;67.83;;;28.17;;
76290;SDS011;65100;46.884;17.410;2024-03-02T06:03:56;67.00;;;28.10;;
76290;SDS011;65100;46.884;17.410;2024-03-02T06:06:22;68.70;;;28.48;;
76290;SDS011;65100;46.884;17.410;2024-03-02T06:08:48;70.30;;;28.48;;
76290;SDS011;65100;46.884;17.410;2024-03-02T06:11:13;72.53;;;29.70;;
76290;SDS011;65100;46.884;17.410;2024-03-02T06:13:39;75.60;;;29.63;;
76290;SDS011;65100;46.884;17.410;2024-03-02T06:16:04;77.57;;;30.80;;
76290;SDS011;65100;46.884;17.410;2024-03-02T06:18:30;74.30;;;31.07;;
76290;SDS011;65100;46.884;17.410;2024-03-02T06:20:55;78.05;;;30.35;;
76290;SDS011;65100;46.884;17.410;2024-03-02T06:23:21;89.20;;;33.07;;
76290;SDS011;65100;46.884;17.410;2024-03-02T06:25:46;78.37;;;31.80;;
76290;SDS011;65100;46.884;17.410;2024-03-02T06:28:12;75.20;;;30.10;;
76290;SDS011;65100;46.884;17.410;2024-03-02T06:30:40;70.97;;;30.10;;
76290;SDS011;65100;46.884;17.410;2024-03-02T06:33:06;72.32;;;29.33;;
76290;SDS011;65100;46.884;17.410;2024-03-02T06:35:31;70.23;;;29.27;;
76290;SDS011;65100;46.884;17.410;2024-03-02T06:37:57;65.67;;;28.23;;
76290;SDS011;65100;46.884;17.410;2024-03-02T06:40:22;67.18;;;28.02;;
76290;SDS011;65100;46.884;17.410;2024-03-02T06:42:48;70.40;;;28.37;;
76290;SDS011;65100;46.884;17.410;2024-03-02T06:45:13;78.23;;;31.93;;
76290;SDS011;65100;46.884;17.410;2024-03-02T06:47:38;77.47;;;32.90;;
76290;SDS011;65100;46.884;17.410;2024-03-02T06:50:04;67.20;;;28.63;;
76290;SDS011;65100;46.884;17.410;2024-03-02T06:52:29;66.45;;;29.00;;
76290;SDS011;65100;46.884;17.410;2024-03-02T06:54:55;69.57;;;29.20;;
76290;SDS011;65100;46.884;17.410;2024-03-02T06:57:20;67.77;;;29.93;;
76290;SDS011;65100;46.884;17.410;2024-03-02T06:59:46;70.97;;;29.60;;
76290;SDS011;65100;46.884;17.410;2024-03-02T07:02:13;71.88;;;29.40;;
76290;SDS011;65100;46.884;17.410;2024-03-02T07:04:39;60.87;;;25.93;;
76290;SDS011;65100;46.884;17.410;2024-03-02T07:07:04;51.63;;;22.87;;
76290;SDS011;65100;46.884;17.410;2024-03-02T07:09:30;52.03;;;22.20;;
76290;SDS011;65100;46.884;17.410;2024-03-02T07:11:55;46.67;;;21.20;;
76290;SDS011;65100;46.884;17.410;2024-03-02T07:14:20;49.10;;;23.10;;
76290;SDS011;65100;46.884;17.410;2024-03-02T07:16:47;49.70;;;22.05;;
76290;SDS011;65100;46.884;17.410;2024-03-02T07:19:12;42.33;;;18.87;;
76290;SDS011;65100;46.884;17.410;2024-03-02T07:21:38;47.73;;;21.13;;
76290;SDS011;65100;46.884;17.410;2024-03-02T07:24:03;47.10;;;20.23;;
76290;SDS011;65100;46.884;17.410;2024-03-02T07:26:30;57.63;;;24.67;;
76290;SDS011;65100;46.884;17.410;2024-03-02T07:28:56;41.55;;;20.27;;
76290;SDS011;65100;46.884;17.410;2024-03-02T07:31:22;43.78;;;18.45;;
76290;SDS011;65100;46.884;17.410;2024-03-02T07:33:47;39.53;;;17.43;;
76290;SDS011;65100;46.884;17.410;2024-03-02T07:36:12;42.80;;;18.77;;
76290;SDS011;65100;46.884;17.410;2024-03-02T07:38:38;45.58;;;19.10;;
76290;SDS011;65100;46.884;17.410;2024-03-02T07:41:05;43.15;;;18.35;;
76290;SDS011;65100;46.884;17.410;2024-03-02T07:43:31;42.83;;;19.13;;
76290;SDS011;65100;46.884;17.410;2024-03-02T07:45:58;41.70;;;18.67;;
76290;SDS011;65100;46.884;17.410;2024-03-02T07:48:24;56.30;;;20.60;;
76290;SDS011;65100;46.884;17.410;2024-03-02T07:50:50;46.63;;;21.63;;
76290;SDS011;65100;46.884;17.410;2024-03-02T07:53:15;45.47;;;20.20;;
76290;SDS011;65100;46.884;17.410;2024-03-02T07:55:41;45.77;;;20.73;;
76290;SDS011;65100;46.884;17.410;2024-03-02T07:58:06;47.72;;;20.95;;
76290;SDS011;65100;46.884;17.410;2024-03-02T08:00:32;48.07;;;22.27;;
76290;SDS011;65100;46.884;17.410;2024-03-02T08:02:57;44.93;;;20.60;;
76290;SDS011;65100;46.884;17.410;2024-03-02T08:05:23;43.90;;;20.27;;
76290;SDS011;65100;46.884;17.410;2024-03-02T08:07:52;46.72;;;20.35;;
76290;SDS011;65100;46.884;17.410;2024-03-02T08:10:18;43.30;;;19.87;;
76290;SDS011;65100;46.884;17.410;2024-03-02T08:12:44;44.83;;;19.50;;
76290;SDS011;65100;46.884;17.410;2024-03-02T08:15:09;42.87;;;19.83;;
76290;SDS011;65100;46.884;17.410;2024-03-02T08:17:35;42.07;;;20.60;;
76290;SDS011;65100;46.884;17.410;2024-03-02T08:20:00;43.30;;;20.50;;
76290;SDS011;65100;46.884;17.410;2024-03-02T08:22:26;45.50;;;20.70;;
76290;SDS011;65100;46.884;17.410;2024-03-02T08:24:52;48.47;;;21.60;;
76290;SDS011;65100;46.884;17.410;2024-03-02T08:27:18;46.08;;;21.80;;
76290;SDS011;65100;46.884;17.410;2024-03-02T08:29:43;53.87;;;23.97;;
76290;SDS011;65100;46.884;17.410;2024-03-02T08:32:09;50.87;;;22.53;;
76290;SDS011;65100;46.884;17.410;2024-03-02T08:34:34;52.35;;;22.70;;
76290;SDS011;65100;46.884;17.410;2024-03-02T08:37:01;51.77;;;21.90;;
76290;SDS011;65100;46.884;17.410;2024-03-02T08:39:27;43.75;;;18.60;;
76290;SDS011;65100;46.884;17.410;2024-03-02T08:41:53;42.65;;;18.45;;
76290;SDS011;65100;46.884;17.410;2024-03-02T08:44:19;41.20;;;18.33;;
76290;SDS011;65100;46.884;17.410;2024-03-02T08:46:45;45.57;;;19.60;;
76290;SDS011;65100;46.884;17.410;2024-03-02T08:49:10;46.72;;;20.77;;
76290;SDS011;65100;46.884;17.410;2024-03-02T08:51:37;40.42;;;17.45;;
76290;SDS011;65100;46.884;17.410;2024-03-02T08:54:02;45.97;;;19.70;;
76290;SDS011;65100;46.884;17.410;2024-03-02T08:56:29;41.05;;;18.23;;
76290;SDS011;65100;46.884;17.410;2024-03-02T08:58:55;31.53;;;13.67;;
76290;SDS011;65100;46.884;17.410;2024-03-02T09:01:20;40.28;;;17.27;;
76290;SDS011;65100;46.884;17.410;2024-03-02T09:03:46;45.77;;;19.83;;
76290;SDS011;65100;46.884;17.410;2024-03-02T09:06:12;48.57;;;20.13;;
76290;SDS011;65100;46.884;17.410;2024-03-02T09:08:38;47.95;;;20.10;;
76290;SDS011;65100;46.884;17.410;2024-03-02T09:11:05;45.72;;;19.55;;
76290;SDS011;65100;46.884;17.410;2024-03-02T09:13:31;48.13;;;22.55;;
76290;SDS011;65100;46.884;17.410;2024-03-02T09:15:57;48.33;;;21.47;;
76290;SDS011;65100;46.884;17.410;2024-03-02T09:21:30;51.00;;;20.77;;
76290;SDS011;65100;46.884;17.410;2024-03-02T09:23:55;49.73;;;20.93;;
76290;SDS011;65100;46.884;17.410;2024-03-02T09:26:21;55.15;;;23.38;;
76290;SDS011;65100;46.884;17.410;2024-03-02T09:28:47;52.03;;;21.98;;
76290;SDS011;65100;46.884;17.410;2024-03-02T09:31:13;50.43;;;21.97;;
76290;SDS011;65100;46.884;17.410;2024-03-02T09:33:38;54.30;;;24.10;;
76290;SDS011;65100;46.884;17.410;2024-03-02T09:36:16;51.40;;;23.52;;
76290;SDS011;65100;46.884;17.410;2024-03-02T09:38:42;49.45;;;22.45;;
76290;SDS011;65100;46.884;17.410;2024-03-02T09:41:08;50.10;;;21.40;;
76290;SDS011;65100;46.884;17.410;2024-03-02T09:43:33;49.47;;;21.40;;
76290;SDS011;65100;46.884;17.410;2024-03-02T09:45:59;50.20;;;21.60;;
76290;SDS011;65100;46.884;17.410;2024-03-02T09:48:25;51.53;;;21.85;;
76290;SDS011;65100;46.884;17.410;2024-03-02T09:50:50;48.93;;;21.40;;
76290;SDS011;65100;46.884;17.410;2024-03-02T09:53:15;42.33;;;18.67;;
76290;SDS011;65100;46.884;17.410;2024-03-02T09:55:45;42.78;;;18.50;;
76290;SDS011;65100;46.884;17.410;2024-03-02T09:58:11;42.38;;;18.52;;
76290;SDS011;65100;46.884;17.410;2024-03-02T10:00:37;42.80;;;18.20;;
76290;SDS011;65100;46.884;17.410;2024-03-02T10:03:03;40.17;;;18.40;;
76290;SDS011;65100;46.884;17.410;2024-03-02T10:05:29;43.85;;;17.30;;
76290;SDS011;65100;46.884;17.410;2024-03-02T10:08:02;42.10;;;19.27;;
76290;SDS011;65100;46.884;17.410;2024-03-02T10:10:34;41.23;;;17.60;;
76290;SDS011;65100;46.884;17.410;2024-03-02T10:13:07;43.90;;;18.67;;
76290;SDS011;65100;46.884;17.410;2024-03-02T10:15:34;42.83;;;18.67;;
76290;SDS011;65100;46.884;17.410;2024-03-02T10:18:00;49.25;;;19.38;;
76290;SDS011;65100;46.884;17.410;2024-03-02T10:20:26;43.50;;;18.63;;
76290;SDS011;65100;46.884;17.410;2024-03-02T10:22:55;41.30;;;16.80;;
76290;SDS011;65100;46.884;17.410;2024-03-02T10:25:34;45.95;;;19.55;;
76290;SDS011;65100;46.884;17.410;2024-03-02T10:27:59;48.30;;;19.57;;
76290;SDS011;65100;46.884;17.410;2024-03-02T10:30:28;50.00;;;20.88;;
76290;SDS011;65100;46.884;17.410;2024-03-02T10:32:54;47.72;;;20.60;;
76290;SDS011;65100;46.884;17.410;2024-03-02T10:35:21;52.10;;;21.80;;
76290;SDS011;65100;46.884;17.410;2024-03-02T10:37:48;45.53;;;18.50;;
76290;SDS011;65100;46.884;17.410;2024-03-02T10:40:14;46.15;;;20.35;;
76290;SDS011;65100;46.884;17.410;2024-03-02T10:42:40;47.27;;;19.70;;
76290;SDS011;65100;46.884;17.410;2024-03-02T10:45:07;44.70;;;19.25;;
76290;SDS011;65100;46.884;17.410;2024-03-02T10:47:36;48.55;;;19.85;;
76290;SDS011;65100;46.884;17.410;2024-03-02T10:50:04;46.75;;;19.77;;
76290;SDS011;65100;46.884;17.410;2024-03-02T10:52:34;47.90;;;18.33;;
76290;SDS011;65100;46.884;17.410;2024-03-02T10:55:00;36.37;;;14.90;;
76290;SDS011;65100;46.884;17.410;2024-03-02T10:57:25;44.33;;;18.90;;
76290;SDS011;65100;46.884;17.410;2024-03-02T10:59:56;45.25;;;20.30;;
76290;SDS011;65100;46.884;17.410;2024-03-02T11:02:26;53.47;;;21.73;;
76290;SDS011;65100;46.884;17.410;2024-03-02T11:04:54;48.70;;;21.50;;
76290;SDS011;65100;46.884;17.410;2024-03-02T11:07:21;45.13;;;20.00;;
76290;SDS011;65100;46.884;17.410;2024-03-02T11:09:50;46.38;;;18.88;;
76290;SDS011;65100;46.884;17.410;2024-03-02T11:15:27;42.33;;;17.97;;
76290;SDS011;65100;46.884;17.410;2024-03-02T11:17:53;41.42;;;17.27;;
76290;SDS011;65100;46.884;17.410;2024-03-02T11:20:19;43.20;;;17.63;;
76290;SDS011;65100;46.884;17.410;2024-03-02T11:22:46;46.47;;;19.38;;
76290;SDS011;65100;46.884;17.410;2024-03-02T11:25:24;47.50;;;19.40;;
76290;SDS011;65100;46.884;17.410;2024-03-02T11:28:01;43.63;;;17.38;;
76290;SDS011;65100;46.884;17.410;2024-03-02T11:32:59;46.42;;;18.95;;
76290;SDS011;65100;46.884;17.410;2024-03-02T11:35:25;43.57;;;18.93;;
76290;SDS011;65100;46.884;17.410;2024-03-02T11:37:54;42.38;;;17.05;;
76290;SDS011;65100;46.884;17.410;2024-03-02T11:40:27;43.33;;;18.50;;
76290;SDS011;65100;46.884;17.410;2024-03-02T11:42:53;44.85;;;18.83;;
76290;SDS011;65100;46.884;17.410;2024-03-02T11:45:24;43.50;;;18.80;;
76290;SDS011;65100;46.884;17.410;2024-03-02T11:47:54;46.72;;;19.83;;
76290;SDS011;65100;46.884;17.410;2024-03-02T11:50:30;48.22;;;19.98;;
76290;SDS011;65100;46.884;17.410;2024-03-02T11:52:58;45.88;;;19.65;;
76290;SDS011;65100;46.884;17.410;2024-03-02T11:55:25;42.30;;;20.20;;
76290;SDS011;65100;46.884;17.410;2024-03-02T11:57:52;43.08;;;19.40;;
76290;SDS011;65100;46.884;17.410;2024-03-02T12:00:18;42.87;;;19.53;;
76290;SDS011;65100;46.884;17.410;2024-03-02T12:02:45;45.85;;;19.75;;
76290;SDS011;65100;46.884;17.410;2024-03-02T12:05:14;42.70;;;19.40;;
76290;SDS011;65100;46.884;17.410;2024-03-02T12:07:41;42.40;;;17.83;;
76290;SDS011;65100;46.884;17.410;2024-03-02T12:10:08;40.13;;;18.40;;
76290;SDS011;65100;46.884;17.410;2024-03-02T12:12:34;42.87;;;19.83;;
76290;SDS011;65100;46.884;17.410;2024-03-02T12:14:59;42.97;;;18.90;;
76290;SDS011;65100;46.884;17.410;2024-03-02T12:17:25;41.13;;;18.90;;
76290;SDS011;65100;46.884;17.410;2024-03-02T12:19:51;42.47;;;19.08;;
76290;SDS011;65100;46.884;17.410;2024-03-02T12:22:17;40.83;;;19.17;;
76290;SDS011;65100;46.884;17.410;2024-03-02T12:24:43;41.80;;;18.40;;
76290;SDS011;65100;46.884;17.410;2024-03-02T12:27:10;42.30;;;19.13;;
76290;SDS011;65100;46.884;17.410;2024-03-02T12:29:37;41.35;;;18.52;;
76290;SDS011;65100;46.884;17.410;2024-03-02T12:32:03;43.03;;;19.88;;
76290;SDS011;65100;46.884;17.410;2024-03-02T12:34:30;42.10;;;19.30;;
76290;SDS011;65100;46.884;17.410;2024-03-02T12:36:56;43.65;;;20.35;;
76290;SDS011;65100;46.884;17.410;2024-03-02T12:39:22;43.70;;;19.52;;
76290;SDS011;65100;46.884;17.410;2024-03-02T12:41:48;42.03;;;19.73;;
76290;SDS011;65100;46.884;17.410;2024-03-02T12:44:15;39.72;;;18.45;;
76290;SDS011;65100;46.884;17.410;2024-03-02T12:46:41;45.00;;;19.65;;
76290;SDS011;65100;46.884;17.410;2024-03-02T12:49:11;42.85;;;19.85;;
76290;SDS011;65100;46.884;17.410;2024-03-02T12:51:38;48.07;;;21.43;;
76290;SDS011;65100;46.884;17.410;2024-03-02T12:54:05;41.53;;;19.20;;
76290;SDS011;65100;46.884;17.410;2024-03-02T12:56:37;42.90;;;19.55;;
76290;SDS011;65100;46.884;17.410;2024-03-02T12:59:03;42.80;;;19.17;;
76290;SDS011;65100;46.884;17.410;2024-03-02T13:01:31;45.97;;;20.98;;
76290;SDS011;65100;46.884;17.410;2024-03-02T13:03:57;43.33;;;20.17;;
76290;SDS011;65100;46.884;17.410;2024-03-02T13:06:23;44.40;;;19.85;;
76290;SDS011;65100;46.884;17.410;2024-03-02T13:08:49;46.05;;;20.17;;
76290;SDS011;65100;46.884;17.410;2024-03-02T13:11:16;43.07;;;19.47;;
76290;SDS011;65100;46.884;17.410;2024-03-02T13:13:42;41.33;;;19.42;;
76290;SDS011;65100;46.884;17.410;2024-03-02T13:16:10;41.85;;;19.42;;
76290;SDS011;65100;46.884;17.410;2024-03-02T13:18:40;37.53;;;17.47;;
76290;SDS011;65100;46.884;17.410;2024-03-02T13:21:06;43.63;;;21.38;;
76290;SDS011;65100;46.884;17.410;2024-03-02T13:23:32;43.45;;;20.92;;
76290;SDS011;65100;46.884;17.410;2024-03-02T13:25:58;40.80;;;19.57;;
76290;SDS011;65100;46.884;17.410;2024-03-02T13:28:26;40.58;;;19.58;;
76290;SDS011;65100;46.884;17.410;2024-03-02T13:30:52;41.65;;;20.48;;
76290;SDS011;65100;46.884;17.410;2024-03-02T13:33:18;39.40;;;18.70;;
76290;SDS011;65100;46.884;17.410;2024-03-02T13:35:50;36.17;;;17.75;;
76290;SDS011;65100;46.884;17.410;2024-03-02T13:38:19;38.42;;;18.50;;
76290;SDS011;65100;46.884;17.410;2024-03-02T13:40:45;37.30;;;18.27;;
76290;SDS011;65100;46.884;17.410;2024-03-02T13:43:13;38.33;;;19.00;;
76290;SDS011;65100;46.884;17.410;2024-03-02T13:45:39;38.45;;;18.95;;
76290;SDS011;65100;46.884;17.410;2024-03-02T13:48:04;36.97;;;18.23;;
76290;SDS011;65100;46.884;17.410;2024-03-02T13:50:31;38.20;;;17.95;;
76290;SDS011;65100;46.884;17.410;2024-03-02T13:52:56;38.50;;;19.27;;
76290;SDS011;65100;46.884;17.410;2024-03-02T13:55:22;35.87;;;17.23;;
76290;SDS011;65100;46.884;17.410;2024-03-02T13:57:48;36.40;;;17.92;;
76290;SDS011;65100;46.884;17.410;2024-03-02T14:00:15;37.75;;;18.80;;
76290;SDS011;65100;46.884;17.410;2024-03-02T14:02:42;36.83;;;18.23;;
76290;SDS011;65100;46.884;17.410;2024-03-02T14:05:08;37.35;;;18.23;;
76290;SDS011;65100;46.884;17.410;2024-03-02T14:07:37;35.85;;;17.33;;
76290;SDS011;65100;46.884;17.410;2024-03-02T14:10:03;40.47;;;19.17;;
76290;SDS011;65100;46.884;17.410;2024-03-02T14:12:29;38.00;;;18.17;;
76290;SDS011;65100;46.884;17.410;2024-03-02T14:14:54;36.93;;;17.80;;
76290;SDS011;65100;46.884;17.410;2024-03-02T14:17:23;37.58;;;18.80;;